Latest Weather Observations for Wilcannia Airport

IDN60801

Issued at 3:02 pm EST Tuesday 30 May 2017 (issued every 30 minutes, with the page automatically refreshed every 10 minutes)

About weather observations | Map of weather stations | Latest weather observations for NSW | Other Formats
Station Details ID: 046012 Name: WILCANNIA AERODROME AWS Lat: -31.52 Lon: 143.38 Height: 94.3 m
Data from the previous 72 hours. | See also: Recent months at Wilcannia Airport
Date/Time
EST
Temp
°C
App
Temp
°C
Dew
Point
°C
Rel
Hum
%
Delta-T
°C
Wind Press
QNH
hPa
Press
MSL
hPa
Rain since
9am
mm
Dir  Spd
km/h
Gust
km/h
Spd
kts
Gust
kts
30/03:00pm 18.3 13.3 3.4 37 6.9 WSW 19 19 10 10 1024.5 1024.4 0.0
30/02:30pm 18.6 14.6 2.9 35 7.3 WSW 13 17 7 9 1024.6 1024.5 0.0
30/02:00pm 18.5 14.1 2.8 35 7.2 WSW 15 24 8 13 1024.8 1024.7 0.0
30/01:30pm 17.7 13.5 1.7 34 7.2 SW 13 22 7 12 1025.0 1024.9 0.0
30/01:00pm 18.2 14.1 2.1 34 7.3 WSW 13 22 7 12 1025.3 1025.2 0.0
30/12:30pm 17.7 13.6 2.1 35 7.1 W 13 20 7 11 1025.7 1025.6 0.0
30/12:00pm 17.4 13.3 2.2 36 6.9 W 13 20 7 11 1026.1 1026.0 0.0
30/11:30am 16.7 12.5 1.6 36 6.7 WNW 13 20 7 11 1026.4 1026.3 0.0
30/11:00am 16.0 11.7 1.3 37 6.4 NW 13 17 7 9 1026.8 1026.7 0.0
30/10:30am 15.3 10.8 2.1 41 5.9 NW 15 17 8 9 1026.8 1026.7 0.0
30/10:00am 14.2 10.0 1.8 43 5.4 NW 13 19 7 10 1026.9 1026.8 0.0
30/09:30am 13.1 9.0 2.4 48 4.7 NNW 13 17 7 9 1026.5 1026.4 0.0
30/09:00am 11.0 7.7 2.3 55 3.7 NNW 9 13 5 7 1026.3 1026.2 0.0
30/08:30am 8.2 5.2 2.0 65 2.6 NNW 7 11 4 6 1026.3 1026.2 0.0
30/08:00am 3.6 0.4 0.5 80 1.2 NW 7 9 4 5 1026.1 1026.0 0.0
30/07:30am 1.4 -2.4 -0.8 85 0.8 WNW 9 9 5 5 1025.9 1025.8 0.0
30/07:00am 0.5 -1.7 -1.7 85 0.8 CALM 0 0 0 0 1025.4 1025.3 0.0
30/06:30am 0.7 -1.5 -1.8 83 0.9 CALM 0 0 0 0 1025.3 1025.2 0.0
30/06:00am 0.5 -2.7 -3.6 74 1.4 NW 4 7 2 4 1025.0 1024.9 0.0
30/05:30am 1.0 -2.6 -2.2 79 1.2 NNW 7 9 4 5 1025.0 1024.9 0.0
30/05:00am 1.5 -2.1 -2.4 75 1.3 N 7 9 4 5 1024.9 1024.8 0.0
30/04:30am 2.9 -0.8 -0.2 80 1.2 NNE 9 9 5 5 1024.8 1024.7 0.0
30/04:00am 3.5 -0.2 0.0 78 1.3 N 9 9 5 5 1025.0 1024.9 0.0
30/03:30am 2.3 -1.1 -0.4 82 1.0 NE 7 7 4 4 1024.9 1024.8 0.0
30/03:00am 2.1 -1.3 -2.0 74 1.4 N 6 7 3 4 1025.1 1025.0 0.0
30/02:30am 3.4 -0.4 -0.8 74 1.5 NNW 9 11 5 6 1025.3 1025.2 0.0
30/02:00am 3.7 0.4 0.2 78 1.3 NNW 7 13 4 7 1025.1 1025.0 0.0
30/01:30am 1.7 -1.7 -2.2 75 1.4 SW 6 6 3 3 1025.0 1024.9 0.0
30/01:00am 2.8 -0.9 -2.5 68 1.8 SW 7 9 4 5 1025.0 1024.9 0.0
30/12:30am 4.3 0.6 0.1 74 1.6 SSW 9 11 5 6 1025.0 1024.9 0.0
30/12:00am 3.8 0.0 -0.6 73 1.6 SW 9 11 5 6 1025.3 1025.2 0.0
 
Date/Time
EST
Temp
°C
App
Temp
°C
Dew
Point
°C
Rel
Hum
%
Delta-T
°C
Wind Press
QNH
hPa
Press
MSL
hPa
Rain since
9am
mm
Dir  Spd
km/h
Gust
km/h
Spd
kts
Gust
kts
29/11:30pm 4.6 2.5 -0.8 68 2.0 CALM 0 0 0 0 1025.2 1025.1 0.0
29/11:00pm 4.9 2.9 -0.1 70 1.9 CALM 0 0 0 0 1025.3 1025.2 0.0
29/10:30pm 3.9 1.9 -0.3 74 1.6 CALM 0 0 0 0 1025.1 1025.0 0.0
29/10:00pm 4.3 1.5 -0.3 72 1.7 ESE 4 6 2 3 1025.2 1025.1 0.0
29/09:30pm 4.5 1.3 -0.3 71 1.8 ESE 6 7 3 4 1025.2 1025.1 0.0
29/09:00pm 4.9 1.6 -0.1 70 1.9 ESE 7 7 4 4 1025.2 1025.1 0.0
29/08:30pm 5.2 1.8 -0.6 66 2.2 ESE 7 9 4 5 1025.0 1024.9 0.0
29/08:00pm 6.0 2.7 -0.1 65 2.3 SE 7 7 4 4 1024.7 1024.6 0.0
29/07:30pm 6.6 2.9 -0.1 62 2.6 SSE 9 11 5 6 1024.4 1024.3 0.0
29/07:00pm 7.3 3.5 -0.4 58 3.0 SSE 9 9 5 5 1024.1 1024.0 0.0
29/06:30pm 8.3 4.8 -1.2 51 3.7 S 7 7 4 4 1023.6 1023.6 0.0
29/06:00pm 10.4 7.2 -0.7 46 4.4 S 6 7 3 4 1023.2 1023.2 0.0
29/05:30pm 13.3 9.8 1.0 43 5.2 S 9 11 5 6 1022.9 1022.9 0.0
29/05:00pm 14.9 11.4 1.4 40 5.9 S 9 13 5 7 1022.8 1022.8 0.0
29/04:30pm 15.9 12.0 0.9 36 6.5 SSW 11 17 6 9 1022.7 1022.7 0.0
29/04:00pm 16.1 11.8 1.0 36 6.6 SSW 13 19 7 10 1022.6 1022.6 0.0
29/03:30pm 16.3 11.6 0.8 35 6.8 S 15 19 8 10 1022.6 1022.6 0.0
29/03:00pm 16.4 12.6 1.7 37 6.5 SW 11 20 6 11 1022.6 1022.6 0.0
29/02:30pm 16.4 12.6 1.7 37 6.5 SSW 11 19 6 10 1022.6 1022.6 0.0
29/02:00pm 16.2 12.0 1.9 38 6.4 SSW 13 22 7 12 1022.8 1022.8 0.0
29/01:30pm 15.6 11.2 0.6 36 6.5 SSW 13 22 7 12 1023.1 1023.1 0.0
29/01:00pm 15.6 11.5 2.4 41 5.9 S 13 20 7 11 1023.4 1023.4 0.0
29/12:30pm 14.9 10.9 2.8 44 5.4 SW 13 20 7 11 1023.7 1023.7 0.0
29/12:00pm 15.3 11.5 4.1 47 5.2 S 13 22 7 12 1024.1 1024.0 0.0
29/11:30am 14.4 10.5 3.2 47 5.1 SSW 13 24 7 13 1024.3 1024.2 0.0
29/11:00am 13.8 9.7 4.1 52 4.4 SSW 15 20 8 11 1024.7 1024.6 0.0
29/10:30am 13.3 9.3 5.0 57 3.9 SSW 15 20 8 11 1024.7 1024.6 0.0
29/10:00am 12.6 8.4 5.5 62 3.3 SSW 17 22 9 12 1024.7 1024.6 0.0
29/09:30am 11.6 6.9 5.9 68 2.7 SSW 20 26 11 14 1024.5 1024.4 0.0
29/09:00am 10.3 7.0 6.3 76 1.9 SW 13 17 7 9 1024.3 1024.2 0.0
29/08:30am 8.7 5.7 6.2 84 1.2 WSW 11 15 6 8 1023.8 1023.8 0.0
29/08:00am 6.4 3.2 5.2 92 0.5 W 11 13 6 7 1023.5 1023.5 0.0
29/07:30am 4.3 1.1 3.3 93 0.4 WNW 9 9 5 5 1023.0 1023.0 0.0
29/07:00am 4.1 0.8 2.6 90 0.6 WSW 9 11 5 6 1022.7 1022.7 0.0
29/06:30am 4.4 0.7 2.4 87 0.8 WSW 11 15 6 8 1022.2 1022.2 0.0
29/06:00am 5.3 1.4 3.5 88 0.8 SSW 13 15 7 8 1021.8 1021.8 0.0
29/05:30am 5.9 2.4 3.6 85 1.0 SSW 11 13 6 7 1021.3 1021.3 0.0
29/05:00am 5.7 1.4 3.5 86 0.9 SW 15 17 8 9 1021.3 1021.3 0.0
29/04:30am 5.4 1.4 3.1 85 1.0 SW 13 15 7 8 1021.2 1021.2 0.0
29/04:00am 5.3 1.6 2.1 80 1.3 SW 11 13 6 7 1021.0 1021.0 0.0
29/03:30am 6.1 2.9 3.1 81 1.3 WSW 9 13 5 7 1020.8 1020.8 0.0
29/03:00am 6.5 3.0 3.3 80 1.3 WSW 11 13 6 7 1020.6 1020.6 0.0
29/02:30am 6.6 3.0 2.7 76 1.6 WSW 11 13 6 7 1020.6 1020.6 0.0
29/02:00am 6.6 2.5 2.3 74 1.8 WSW 13 13 7 7 1020.5 1020.5 0.0
29/01:30am 6.7 3.2 1.4 69 2.1 W 9 11 5 6 1020.3 1020.3 0.0
29/01:00am 8.0 4.2 1.6 64 2.6 SW 11 13 6 7 1020.1 1020.1 0.0
29/12:30am 9.1 5.0 2.0 61 3.0 WSW 13 15 7 8 1020.0 1020.0 0.0
29/12:00am 9.6 5.5 2.2 60 3.1 WSW 13 17 7 9 1019.9 1019.9 0.0
 
Date/Time
EST
Temp
°C
App
Temp
°C
Dew
Point
°C
Rel
Hum
%
Delta-T
°C
Wind Press
QNH
hPa
Press
MSL
hPa
Rain since
9am
mm
Dir  Spd
km/h
Gust
km/h
Spd
kts
Gust
kts
28/11:30pm 8.9 4.7 1.8 61 3.0 W 13 17 7 9 1019.7 1019.7 0.0
28/11:00pm 8.5 4.3 1.4 61 2.9 WNW 13 15 7 8 1019.6 1019.6 0.0
28/10:30pm 8.4 4.1 1.1 60 3.0 WNW 13 15 7 8 1019.5 1019.5 0.0
28/10:00pm 8.4 3.7 0.9 59 3.0 WNW 15 15 8 8 1019.4 1019.4 0.0
28/09:30pm 8.0 4.0 0.5 59 3.0 WNW 11 13 6 7 1019.3 1019.3 0.0
28/09:00pm 8.5 4.5 0.7 58 3.1 WNW 11 13 6 7 1019.1 1019.1 0.0
28/08:30pm 8.6 4.9 0.1 55 3.4 WNW 9 11 5 6 1018.9 1018.9 0.0
28/08:00pm 9.8 5.8 0.7 53 3.7 W 11 13 6 7 1018.4 1018.4 0.0
28/07:30pm 10.2 6.2 0.8 52 3.9 W 11 15 6 8 1018.1 1018.0 0.0
28/07:00pm 10.1 6.1 0.2 50 4.0 W 11 13 6 7 1017.7 1017.6 0.0
28/06:30pm 12.2 8.2 0.3 44 4.9 WSW 11 13 6 7 1017.2 1017.1 0.0
28/06:00pm 13.9 9.5 0.2 39 5.8 WSW 13 19 7 10 1016.8 1016.7 0.0
28/05:30pm 15.3 9.7 -0.1 35 6.5 WSW 19 24 10 13 1016.5 1016.4 0.0
28/05:00pm 16.7 10.6 0.4 33 7.1 WSW 22 32 12 17 1016.1 1016.0 0.0
28/04:30pm 17.5 11.1 1.1 33 7.3 WSW 24 35 13 19 1015.8 1015.7 0.0
28/04:00pm 17.7 10.5 0.8 32 7.5 WSW 28 35 15 19 1015.6 1015.5 0.0
28/03:30pm 18.0 11.6 1.1 32 7.5 WSW 24 39 13 21 1015.5 1015.4 0.0
28/03:00pm 18.0 10.9 1.5 33 7.4 W 28 39 15 21 1015.4 1015.3 0.0
28/02:30pm 17.2 11.3 2.0 36 6.9 W 22 35 12 19 1015.5 1015.4 0.0
28/02:00pm 18.1 11.6 2.4 35 7.2 W 26 37 14 20 1015.5 1015.4 0.0
28/01:30pm 18.1 12.1 3.6 38 6.8 WSW 24 32 13 17 1015.6 1015.5 0.0
28/01:00pm 17.6 11.8 4.2 41 6.3 WSW 24 37 13 20 1015.9 1015.8 0.0
28/12:30pm 16.7 11.0 5.0 46 5.6 WSW 24 41 13 22 1016.1 1016.0 0.0
28/12:00pm 16.2 10.6 5.5 49 5.1 SW 24 35 13 19 1016.7 1016.6 0.0
28/11:30am 16.0 10.6 4.7 47 5.3 SW 22 37 12 20 1016.9 1016.8 0.0
28/11:00am 16.2 10.9 5.2 48 5.3 SW 22 32 12 17 1017.2 1017.1 0.0
28/10:30am 15.7 10.5 5.3 50 5.0 SW 22 33 12 18 1017.2 1017.1 0.0
28/10:00am 15.1 9.3 6.1 55 4.3 SW 26 35 14 19 1017.1 1017.0 0.0
28/09:30am 14.6 9.4 7.4 62 3.6 WSW 24 32 13 17 1016.9 1016.8 0.0
28/09:00am 14.1 10.3 7.4 64 3.3 SW 17 24 9 13 1016.5 1016.4 0.0
28/08:30am 12.1 8.4 6.2 67 2.8 WSW 15 17 8 9 1016.1 1016.0 0.0
28/08:00am 10.0 6.7 4.6 69 2.4 W 11 15 6 8 1015.7 1015.6 0.0
28/07:30am 9.2 5.5 4.2 71 2.2 W 13 17 7 9 1015.5 1015.4 0.0
28/07:00am 9.0 5.2 3.8 70 2.3 W 13 15 7 8 1015.2 1015.1 0.0
28/06:30am 8.8 4.9 3.6 70 2.3 W 13 15 7 8 1014.8 1014.7 0.0
28/06:00am 9.0 5.5 3.4 68 2.4 W 11 13 6 7 1014.4 1014.3 0.0
28/05:30am 9.8 5.9 3.3 64 2.8 W 13 15 7 8 1014.3 1014.2 0.0
28/05:00am 9.9 6.3 2.7 61 3.1 W 11 15 6 8 1014.0 1013.9 0.0
28/04:30am 10.9 6.8 2.5 56 3.6 W 13 19 7 10 1014.1 1014.0 0.0
28/04:00am 11.8 7.4 2.8 54 3.9 WNW 15 19 8 10 1013.8 1013.7 0.0
28/03:30am 12.6 7.9 3.0 52 4.3 NW 17 22 9 12 1013.5 1013.4 0.0
28/03:00am 13.7 8.6 3.2 49 4.7 NNW 19 24 10 13 1013.4 1013.3 0.0
28/02:30am 13.7 8.4 3.2 49 4.7 NNW 20 26 11 14 1013.5 1013.4 0.0
28/02:00am 13.6 8.5 3.1 49 4.7 NNW 19 24 10 13 1013.8 1013.7 0.0
28/01:30am 14.5 9.3 3.3 47 5.1 NNW 20 24 11 13 1014.0 1013.9 0.0
28/01:00am 14.3 9.3 3.7 49 4.8 N 19 24 10 13 1014.3 1014.2 0.0
28/12:30am 13.8 8.9 3.9 51 4.5 N 19 22 10 12 1014.5 1014.4 0.0
28/12:00am 12.8 8.6 3.7 54 4.1 N 15 17 8 9 1014.8 1014.7 0.0
 
Date/Time
EST
Temp
°C
App
Temp
°C
Dew
Point
°C
Rel
Hum
%
Delta-T
°C
Wind Press
QNH
hPa
Press
MSL
hPa
Rain since
9am
mm
Dir  Spd
km/h
Gust
km/h
Spd
kts
Gust
kts
27/11:30pm 11.9 8.0 3.4 56 3.8 N 13 15 7 8 1014.9 1014.8 0.0
27/11:00pm 11.8 7.9 3.6 57 3.7 N 13 15 7 8 1014.9 1014.8 0.0
27/10:30pm 12.4 8.1 3.4 54 4.0 N 15 15 8 8 1015.1 1015.0 0.0
27/10:00pm 13.5 9.3 3.8 52 4.4 N 15 17 8 9 1015.3 1015.2 0.0
27/09:30pm 13.5 9.3 3.8 52 4.4 N 15 17 8 9 1015.4 1015.3 0.0
27/09:00pm 13.8 9.6 3.9 51 4.5 N 15 17 8 9 1015.4 1015.3 0.0
27/08:30pm 13.8 10.0 4.1 52 4.4 N 13 15 7 8 1015.5 1015.4 0.0
27/08:00pm 13.8 10.0 3.9 51 4.5 N 13 13 7 7 1015.4 1015.3 0.0
27/07:30pm 14.5 10.3 3.9 49 4.9 N 15 15 8 8 1015.3 1015.2 0.0
27/07:00pm 14.8 11.4 4.2 49 4.9 N 11 13 6 7 1015.3 1015.2 0.0
27/06:30pm 15.0 11.9 3.5 46 5.3 NNW 9 13 5 7 1015.3 1015.2 0.0
27/06:00pm 16.6 13.5 3.7 42 6.0 NNW 9 11 5 6 1015.0 1014.9 0.0
27/05:30pm 18.9 15.3 3.1 35 7.4 NNW 11 13 6 7 1014.7 1014.6 0.0
27/05:00pm 20.7 16.5 3.9 33 8.1 NNW 15 19 8 10 1014.8 1014.7 0.0
27/04:30pm 21.5 17.7 3.7 31 8.6 NW 13 20 7 11 1014.9 1014.8 0.0
27/04:00pm 22.0 18.1 3.6 30 8.9 NW 13 19 7 10 1015.1 1015.0 0.0
27/03:30pm 22.3 18.6 4.4 31 8.8 NW 13 20 7 11 1015.2 1015.1 0.0

Other Formats:

Comma delimited format used in spreadsheet applications
http://www.bom.gov.au/fwo/IDN60801/IDN60801.95695.axf

JavaScript Object Notation format (JSON) in row-major order
http://www.bom.gov.au/fwo/IDN60801/IDN60801.95695.json